createdAt,value
2022-11-13T00:01:07.559Z,1.63
2022-11-13T00:03:33.831Z,1.67
2022-11-13T00:06:00.802Z,2.17
2022-11-13T00:08:27.397Z,1.92
2022-11-13T00:10:59.720Z,0.90
2022-11-13T00:15:57.471Z,1.10
2022-11-13T00:18:23.963Z,0.98
2022-11-13T00:20:50.264Z,1.10
2022-11-13T00:23:16.696Z,2.40
2022-11-13T00:25:42.999Z,3.22
2022-11-13T00:28:09.309Z,3.78
2022-11-13T00:30:35.734Z,2.75
2022-11-13T00:33:02.084Z,3.25
2022-11-13T00:35:28.426Z,3.22
2022-11-13T00:37:55.054Z,4.18
2022-11-13T00:40:21.367Z,4.60
2022-11-13T00:42:47.659Z,3.20
2022-11-13T00:45:14.360Z,3.03
2022-11-13T00:47:40.672Z,3.17
2022-11-13T00:50:07.142Z,2.33
2022-11-13T00:52:33.646Z,2.80
2022-11-13T00:54:59.949Z,2.13
2022-11-13T00:57:26.356Z,2.13
2022-11-13T00:59:52.738Z,3.90
2022-11-13T01:02:19.052Z,2.97
2022-11-13T01:04:45.327Z,1.70
2022-11-13T01:07:11.758Z,1.30
2022-11-13T01:09:38.123Z,1.25
2022-11-13T01:12:04.605Z,1.88
2022-11-13T01:14:31.045Z,1.75
2022-11-13T01:16:57.383Z,2.45
2022-11-13T01:19:23.816Z,4.72
2022-11-13T01:21:50.294Z,4.70
2022-11-13T01:24:16.720Z,4.47
2022-11-13T01:26:43.095Z,4.53
2022-11-13T01:29:10.286Z,2.58
2022-11-13T01:31:36.641Z,2.03
2022-11-13T01:34:02.968Z,2.20
2022-11-13T01:36:29.813Z,2.20
2022-11-13T01:38:56.598Z,2.22
2022-11-13T01:41:23.811Z,2.10
2022-11-13T01:43:50.910Z,1.50
2022-11-13T01:46:26.479Z,0.98
2022-11-13T01:48:56.780Z,0.70
2022-11-13T01:51:29.444Z,0.60
2022-11-13T01:53:56.335Z,0.50
2022-11-13T01:56:22.715Z,0.50
2022-11-13T01:58:53.474Z,0.40
2022-11-13T02:01:19.832Z,0.45
2022-11-13T02:03:46.375Z,0.45
2022-11-13T02:06:13.022Z,1.35
2022-11-13T02:08:39.562Z,0.70
2022-11-13T02:11:05.980Z,0.70
2022-11-13T02:13:32.324Z,0.60
2022-11-13T02:15:58.932Z,0.50
2022-11-13T02:18:26.394Z,0.57
2022-11-13T02:21:04.881Z,0.60
2022-11-13T02:23:37.345Z,1.10
2022-11-13T02:26:03.956Z,0.77
2022-11-13T02:28:30.798Z,0.47
2022-11-13T02:30:57.427Z,0.40
2022-11-13T02:33:26.061Z,0.85
2022-11-13T02:35:52.935Z,0.82
2022-11-13T02:38:19.739Z,0.60
2022-11-13T02:40:46.098Z,0.70
2022-11-13T02:43:12.436Z,0.50
2022-11-13T02:45:38.767Z,0.70
2022-11-13T02:48:06.023Z,0.88
2022-11-13T02:50:32.760Z,1.10
2022-11-13T02:52:59.147Z,2.58
2022-11-13T02:55:25.557Z,2.53
2022-11-13T02:57:51.855Z,1.30
2022-11-13T03:00:18.484Z,1.60
2022-11-13T03:02:44.836Z,1.30
2022-11-13T03:05:12.887Z,1.35
2022-11-13T03:07:39.972Z,3.58
2022-11-13T03:10:06.568Z,4.28
2022-11-13T03:12:33.073Z,3.03
2022-11-13T03:14:59.419Z,2.83
2022-11-13T03:17:25.698Z,1.40
2022-11-13T03:19:51.991Z,1.95
2022-11-13T03:22:18.395Z,1.17
2022-11-13T03:24:44.728Z,2.45
2022-11-13T03:27:11.065Z,1.70
2022-11-13T03:29:37.405Z,2.05
2022-11-13T03:32:03.757Z,2.25
2022-11-13T03:34:30.065Z,2.42
2022-11-13T03:36:56.539Z,3.35
2022-11-13T03:39:22.828Z,4.25
2022-11-13T03:41:49.126Z,3.75
2022-11-13T03:44:15.524Z,2.88
2022-11-13T03:46:41.835Z,2.85
2022-11-13T03:49:08.198Z,2.90
2022-11-13T03:51:34.547Z,2.85
2022-11-13T03:54:00.910Z,1.73
2022-11-13T03:56:27.306Z,2.17
2022-11-13T03:58:53.645Z,1.80
2022-11-13T04:01:20.021Z,1.60
2022-11-13T04:03:46.431Z,1.75
2022-11-13T04:06:14.483Z,2.15
2022-11-13T04:08:40.821Z,2.45
2022-11-13T04:11:07.765Z,2.45
2022-11-13T04:13:34.184Z,2.55
2022-11-13T04:16:00.563Z,3.47
2022-11-13T04:18:27.190Z,2.92
2022-11-13T04:20:58.980Z,1.80
2022-11-13T04:23:25.275Z,1.02
2022-11-13T04:25:51.560Z,1.95
2022-11-13T04:28:17.980Z,1.55
2022-11-13T04:30:44.321Z,1.10
2022-11-13T04:33:10.622Z,1.13
2022-11-13T04:35:37.224Z,1.05
2022-11-13T04:38:03.579Z,0.80
2022-11-13T04:40:29.899Z,1.00
2022-11-13T04:42:56.237Z,1.27
2022-11-13T04:45:23.500Z,0.90
2022-11-13T04:47:50.997Z,0.77
2022-11-13T04:50:17.577Z,0.60
2022-11-13T04:52:43.943Z,0.60
2022-11-13T04:55:10.754Z,0.77
2022-11-13T04:57:37.617Z,1.15
2022-11-13T05:00:05.170Z,1.35
2022-11-13T05:02:31.468Z,1.83
2022-11-13T05:05:03.348Z,1.15
2022-11-13T05:07:31.194Z,1.10
2022-11-13T05:09:58.266Z,0.63
2022-11-13T05:12:24.569Z,0.88
2022-11-13T05:14:50.888Z,1.27
2022-11-13T05:17:17.265Z,1.27
2022-11-13T05:19:43.555Z,1.02
2022-11-13T05:22:09.912Z,1.55
2022-11-13T05:24:36.373Z,1.77
2022-11-13T05:27:02.680Z,1.00
2022-11-13T05:29:28.993Z,1.50
2022-11-13T05:31:55.328Z,2.28
2022-11-13T05:34:21.647Z,3.08
2022-11-13T05:36:47.964Z,2.03
2022-11-13T05:39:14.308Z,3.50
2022-11-13T05:41:40.665Z,3.08
2022-11-13T05:44:07.000Z,2.47
2022-11-13T05:46:33.340Z,3.30
2022-11-13T05:49:00.915Z,2.33
2022-11-13T05:51:28.729Z,2.78
2022-11-13T05:53:55.288Z,2.97
2022-11-13T05:56:23.191Z,2.67
2022-11-13T05:58:50.243Z,2.00
2022-11-13T06:01:18.977Z,3.38
2022-11-13T06:03:45.691Z,5.63
2022-11-13T06:06:13.478Z,5.47
2022-11-13T06:08:39.837Z,5.20
2022-11-13T06:11:08.297Z,5.03
2022-11-13T06:13:34.626Z,6.60
2022-11-13T06:16:11.568Z,3.15
2022-11-13T06:18:38.418Z,6.18
2022-11-13T06:21:05.949Z,5.47
2022-11-13T06:23:33.075Z,7.18
2022-11-13T06:26:02.891Z,3.90
2022-11-13T06:28:29.592Z,4.65
2022-11-13T06:30:56.261Z,3.97
2022-11-13T06:33:22.628Z,3.78
2022-11-13T06:35:48.914Z,3.97
2022-11-13T06:38:15.258Z,2.95
2022-11-13T06:40:41.543Z,3.50
2022-11-13T06:43:07.900Z,4.00
2022-11-13T06:45:34.337Z,2.92
2022-11-13T06:48:00.628Z,3.47
2022-11-13T06:50:26.901Z,3.28
2022-11-13T06:52:54.122Z,4.78
2022-11-13T06:55:20.464Z,2.88
2022-11-13T06:57:46.762Z,2.22
2022-11-13T07:00:13.466Z,3.97
2022-11-13T07:02:39.904Z,2.40
2022-11-13T07:05:06.259Z,3.78
2022-11-13T07:07:32.687Z,2.67
2022-11-13T07:09:58.995Z,3.05
2022-11-13T07:12:27.757Z,2.25
2022-11-13T07:14:54.160Z,2.65
2022-11-13T07:17:20.622Z,2.65
2022-11-13T07:19:46.903Z,3.28
2022-11-13T07:22:13.290Z,3.00
2022-11-13T07:24:39.638Z,3.13
2022-11-13T07:27:05.978Z,3.85
2022-11-13T07:29:32.390Z,4.50
2022-11-13T07:31:58.711Z,3.17
2022-11-13T07:34:25.392Z,2.97
2022-11-13T07:36:51.847Z,2.03
2022-11-13T07:39:18.154Z,2.40
2022-11-13T07:41:44.472Z,3.08
2022-11-13T07:44:12.900Z,2.28
2022-11-13T07:46:41.688Z,3.70
2022-11-13T07:49:08.016Z,2.63
2022-11-13T07:51:34.502Z,3.10
2022-11-13T07:54:00.796Z,3.08
2022-11-13T07:56:27.283Z,2.58
2022-11-13T07:58:53.724Z,2.60
2022-11-13T08:01:20.137Z,3.47
2022-11-13T08:03:46.508Z,4.93
2022-11-13T08:06:12.871Z,7.00
2022-11-13T08:08:39.234Z,4.32
2022-11-13T08:11:06.474Z,4.72
2022-11-13T08:13:34.221Z,4.70
2022-11-13T08:16:01.159Z,4.20
2022-11-13T08:18:28.539Z,3.92
2022-11-13T08:20:55.049Z,4.00
2022-11-13T08:23:21.439Z,5.35
2022-11-13T08:25:47.763Z,5.47
2022-11-13T08:28:14.153Z,3.90
2022-11-13T08:30:42.715Z,4.30
2022-11-13T08:33:09.021Z,5.20
2022-11-13T08:35:35.425Z,4.13
2022-11-13T08:38:06.029Z,5.00
2022-11-13T08:40:32.591Z,4.95
2022-11-13T08:43:03.020Z,5.13
2022-11-13T08:45:30.077Z,5.32
2022-11-13T08:48:03.543Z,3.55
2022-11-13T08:50:30.757Z,3.88
2022-11-13T08:52:57.874Z,2.33
2022-11-13T08:55:24.617Z,1.92
2022-11-13T08:57:51.115Z,2.78
2022-11-13T09:00:17.875Z,2.58
2022-11-13T09:02:44.416Z,3.55
2022-11-13T09:05:10.878Z,1.65
2022-11-13T09:07:37.230Z,1.33
2022-11-13T09:10:04.022Z,1.10
2022-11-13T09:12:30.436Z,0.82
2022-11-13T09:14:56.788Z,1.52
2022-11-13T09:17:23.172Z,1.52
2022-11-13T09:19:49.593Z,1.60
2022-11-13T09:22:15.987Z,1.13
2022-11-13T09:24:42.321Z,1.33
2022-11-13T09:27:08.689Z,1.05
2022-11-13T09:29:36.030Z,0.50
2022-11-13T09:32:02.423Z,0.70
2022-11-13T09:34:28.948Z,0.80
2022-11-13T09:36:55.340Z,0.95
2022-11-13T09:39:21.873Z,0.63
2022-11-13T09:41:52.154Z,0.70
2022-11-13T09:44:24.268Z,0.98
2022-11-13T09:46:55.230Z,1.20
2022-11-13T09:49:24.581Z,0.60
2022-11-13T09:51:55.576Z,0.55
2022-11-13T09:54:22.445Z,1.20
2022-11-13T09:57:07.769Z,1.52
2022-11-13T09:59:40.573Z,1.50
2022-11-13T10:02:26.243Z,2.00
2022-11-13T10:05:10.135Z,1.90
2022-11-13T10:07:41.730Z,2.65
2022-11-13T10:10:11.037Z,2.33
2022-11-13T10:12:37.897Z,2.05
2022-11-13T10:15:05.085Z,1.80
2022-11-13T10:17:34.151Z,1.42
2022-11-13T10:20:02.258Z,2.35
2022-11-13T10:22:55.241Z,2.45
2022-11-13T10:25:23.785Z,3.72
2022-11-13T10:27:55.725Z,3.28
2022-11-13T10:32:48.763Z,1.95
2022-11-13T10:35:24.681Z,3.25
2022-11-13T10:38:09.116Z,3.25
2022-11-13T10:40:37.421Z,2.13
2022-11-13T10:43:19.540Z,2.47
2022-11-13T10:48:22.638Z,1.90
2022-11-13T10:50:53.100Z,1.95
2022-11-13T10:53:19.973Z,1.60
2022-11-13T10:55:49.475Z,1.30
2022-11-13T10:58:16.818Z,1.33
2022-11-13T11:00:47.254Z,1.50
2022-11-13T11:03:14.851Z,7.25
2022-11-13T11:05:51.606Z,1.60
2022-11-13T11:08:18.388Z,2.55
2022-11-13T11:11:12.615Z,2.35
2022-11-13T11:13:38.960Z,1.48
2022-11-13T11:16:05.838Z,1.27
2022-11-13T11:18:35.718Z,1.63
2022-11-13T11:21:06.132Z,1.73
2022-11-13T11:23:49.591Z,1.42
2022-11-13T11:26:31.647Z,1.10
2022-11-13T11:29:24.399Z,0.50
2022-11-13T11:31:54.601Z,0.80
2022-11-13T11:34:28.880Z,0.50
2022-11-13T11:37:04.267Z,0.40
2022-11-13T11:39:49.298Z,0.68
2022-11-13T11:42:34.798Z,0.40
2022-11-13T11:45:17.439Z,1.85
2022-11-13T11:47:43.933Z,1.20
2022-11-13T11:50:14.892Z,1.30
2022-11-13T11:52:46.198Z,1.00
2022-11-13T11:55:21.569Z,1.17
2022-11-13T11:58:06.041Z,1.55
2022-11-13T12:00:32.871Z,1.10
2022-11-13T12:03:08.510Z,1.25
2022-11-13T12:05:34.858Z,1.27
2022-11-13T12:08:10.429Z,1.00
2022-11-13T12:10:36.739Z,0.63
2022-11-13T12:13:03.070Z,1.10
2022-11-13T12:15:41.173Z,2.55
2022-11-13T12:18:27.911Z,1.10
2022-11-13T12:21:00.493Z,1.55
2022-11-13T12:23:34.071Z,0.60
2022-11-13T12:26:20.650Z,0.90
2022-11-13T12:29:13.417Z,0.47
2022-11-13T12:31:39.842Z,0.50
2022-11-13T12:34:12.177Z,0.98
2022-11-13T12:36:38.876Z,0.57
2022-11-13T12:39:17.833Z,0.43
2022-11-13T12:41:50.354Z,0.40
2022-11-13T12:44:16.702Z,0.63
2022-11-13T12:46:43.943Z,0.60
2022-11-13T12:49:25.781Z,0.47
2022-11-13T12:51:56.618Z,0.50
2022-11-13T12:54:41.321Z,0.20
2022-11-13T12:57:19.068Z,0.52
2022-11-13T12:59:53.727Z,0.32
2022-11-13T13:02:33.079Z,0.38
2022-11-13T13:05:18.066Z,0.32
2022-11-13T13:07:44.539Z,0.25
2022-11-13T13:10:13.804Z,0.20
2022-11-13T13:12:51.588Z,0.30
2022-11-13T13:15:37.372Z,0.75
2022-11-13T13:18:05.173Z,1.05
2022-11-13T13:20:34.053Z,1.45
2022-11-13T13:23:04.847Z,0.60
2022-11-13T13:25:34.701Z,0.52
2022-11-13T13:28:01.199Z,0.70
2022-11-13T13:30:28.371Z,1.25
2022-11-13T13:33:03.879Z,1.20
2022-11-13T13:35:34.368Z,1.30
2022-11-13T13:38:27.834Z,0.70
2022-11-13T13:41:06.615Z,0.80
2022-11-13T13:43:51.985Z,1.30
2022-11-13T13:46:30.414Z,1.00
2022-11-13T13:49:01.867Z,1.00
2022-11-13T13:51:31.687Z,1.13
2022-11-13T13:53:59.512Z,1.25
2022-11-13T13:56:26.549Z,1.55
2022-11-13T13:58:53.409Z,1.95
2022-11-13T14:01:27.459Z,3.40
2022-11-13T14:04:06.147Z,3.50
2022-11-13T14:06:32.973Z,2.40
2022-11-13T14:09:22.812Z,1.25
2022-11-13T14:11:56.704Z,0.73
2022-11-13T14:14:23.472Z,0.73
2022-11-13T14:16:50.919Z,0.70
2022-11-13T14:19:17.806Z,0.55
2022-11-13T14:21:45.303Z,1.15
2022-11-13T14:24:16.684Z,0.80
2022-11-13T14:26:43.162Z,0.40
2022-11-13T14:29:29.752Z,0.20
2022-11-13T14:32:02.212Z,0.30
2022-11-13T14:34:31.028Z,0.20
2022-11-13T14:37:16.093Z,0.40
2022-11-13T14:39:45.767Z,0.28
2022-11-13T14:42:23.144Z,0.40
2022-11-13T14:44:49.510Z,0.80
2022-11-13T14:47:27.251Z,0.70
2022-11-13T14:49:53.655Z,0.57
2022-11-13T14:52:27.951Z,0.90
2022-11-13T14:55:20.323Z,0.57
2022-11-13T14:57:47.319Z,0.90
2022-11-13T15:00:17.492Z,0.80
2022-11-13T15:02:44.615Z,1.02
2022-11-13T15:05:10.904Z,0.50
2022-11-13T15:07:41.105Z,0.40
2022-11-13T15:10:11.516Z,0.55
2022-11-13T15:12:38.167Z,0.20
2022-11-13T15:15:04.760Z,0.30
2022-11-13T15:17:31.271Z,0.43
2022-11-13T15:19:57.656Z,0.30
2022-11-13T15:22:28.382Z,0.20
2022-11-13T15:24:55.381Z,0.40
2022-11-13T15:27:21.752Z,0.30
2022-11-13T15:29:48.133Z,0.10
2022-11-13T15:32:15.401Z,0.60
2022-11-13T15:34:41.853Z,0.55
2022-11-13T15:37:12.264Z,0.60
2022-11-13T15:39:38.654Z,0.50
2022-11-13T15:42:06.865Z,0.80
2022-11-13T15:44:33.255Z,0.52
2022-11-13T15:46:59.596Z,1.08
2022-11-13T15:49:27.510Z,0.40
2022-11-13T15:51:53.873Z,0.40
2022-11-13T15:54:31.533Z,0.50
2022-11-13T15:56:58.005Z,0.55
2022-11-13T15:59:24.565Z,0.40
2022-11-13T16:01:56.634Z,0.50
2022-11-13T16:04:26.679Z,0.55
2022-11-13T16:07:00.688Z,0.80
2022-11-13T16:09:27.237Z,0.70
2022-11-13T16:11:53.568Z,0.80
2022-11-13T16:14:24.521Z,0.63
2022-11-13T16:16:52.065Z,0.47
2022-11-13T16:19:22.347Z,0.30
2022-11-13T16:21:48.761Z,0.30
2022-11-13T16:24:15.351Z,0.43
2022-11-13T16:26:42.738Z,0.30
2022-11-13T16:29:20.846Z,0.30
2022-11-13T16:31:47.771Z,0.50
2022-11-13T16:34:14.194Z,0.40
2022-11-13T16:36:40.650Z,0.50
2022-11-13T16:39:09.957Z,0.47
2022-11-13T16:41:36.772Z,0.70
2022-11-13T16:44:03.106Z,1.38
2022-11-13T16:46:30.643Z,1.58
2022-11-13T16:48:57.248Z,0.93
2022-11-13T16:51:23.734Z,0.50
2022-11-13T16:53:50.258Z,0.50
2022-11-13T16:56:18.613Z,0.40
2022-11-13T16:58:44.947Z,0.98
2022-11-13T17:01:16.129Z,0.73
2022-11-13T17:03:43.476Z,0.95
2022-11-13T17:06:33.004Z,1.90
2022-11-13T17:09:00.561Z,2.25
2022-11-13T17:11:28.067Z,1.77
2022-11-13T17:13:55.715Z,2.35
2022-11-13T17:16:22.827Z,1.80
2022-11-13T17:18:50.319Z,1.70
2022-11-13T17:21:17.008Z,3.63
2022-11-13T17:23:43.537Z,2.83
2022-11-13T17:26:10.194Z,2.25
2022-11-13T17:28:36.527Z,2.72
2022-11-13T17:31:03.993Z,3.28
2022-11-13T17:33:31.387Z,2.60
2022-11-13T17:35:58.167Z,3.58
2022-11-13T17:38:24.957Z,1.90
2022-11-13T17:40:52.359Z,1.55
2022-11-13T17:43:18.809Z,1.20
2022-11-13T17:45:48.914Z,1.33
2022-11-13T17:48:15.221Z,2.00
2022-11-13T17:50:41.571Z,1.65
2022-11-13T17:53:07.896Z,0.88
2022-11-13T17:55:34.216Z,0.90
2022-11-13T17:58:01.807Z,0.50
2022-11-13T18:00:28.229Z,0.25
2022-11-13T18:02:57.655Z,0.50
2022-11-13T18:05:24.086Z,0.30
2022-11-13T18:07:50.388Z,0.40
2022-11-13T18:10:17.931Z,0.40
2022-11-13T18:12:44.405Z,0.40
2022-11-13T18:15:10.801Z,0.40
2022-11-13T18:17:37.150Z,0.60
2022-11-13T18:20:03.629Z,0.60
2022-11-13T18:22:29.964Z,0.43
2022-11-13T18:24:56.542Z,0.50
2022-11-13T18:27:23.050Z,0.40
2022-11-13T18:29:49.408Z,0.30
2022-11-13T18:32:15.742Z,0.50
2022-11-13T18:34:42.150Z,0.65
2022-11-13T18:37:08.518Z,0.50
2022-11-13T18:39:34.869Z,0.40
2022-11-13T18:42:01.337Z,0.30
2022-11-13T18:44:27.786Z,0.55
2022-11-13T18:46:54.108Z,0.70
2022-11-13T18:49:22.291Z,0.65
2022-11-13T18:51:48.644Z,0.40
2022-11-13T18:54:16.647Z,1.38
2022-11-13T18:56:43.065Z,1.67
2022-11-13T18:59:09.504Z,1.45
2022-11-13T19:01:38.160Z,1.10
2022-11-13T19:04:22.353Z,1.10
2022-11-13T19:06:49.887Z,1.00
2022-11-13T19:09:17.987Z,2.20
2022-11-13T19:11:45.360Z,0.82
2022-11-13T19:14:15.961Z,1.02
2022-11-13T19:16:42.601Z,0.70
2022-11-13T19:19:17.445Z,0.57
2022-11-13T19:21:44.052Z,0.95
2022-11-13T19:24:11.808Z,0.70
2022-11-13T19:26:38.788Z,1.27
2022-11-13T19:29:05.200Z,1.40
2022-11-13T19:31:31.629Z,0.70
2022-11-13T19:33:59.567Z,0.80
2022-11-13T19:36:28.061Z,1.27
2022-11-13T19:38:55.186Z,2.25
2022-11-13T19:41:21.550Z,1.30
2022-11-13T19:43:50.849Z,1.27
2022-11-13T19:46:18.122Z,0.68
2022-11-13T19:48:45.033Z,3.00
2022-11-13T19:51:12.553Z,1.52
2022-11-13T19:53:39.593Z,1.48
2022-11-13T19:56:06.475Z,1.52
2022-11-13T19:58:32.928Z,1.33
2022-11-13T20:00:59.363Z,1.10
2022-11-13T20:03:27.369Z,1.55
2022-11-13T20:05:54.433Z,1.08
2022-11-13T20:08:25.289Z,1.05
2022-11-13T20:10:53.415Z,1.50
2022-11-13T20:13:19.920Z,1.13
2022-11-13T20:15:52.628Z,1.10
2022-11-13T20:18:18.917Z,0.70
2022-11-13T20:20:47.408Z,0.95
2022-11-13T20:23:16.906Z,0.63
2022-11-13T20:25:50.703Z,1.35
2022-11-13T20:28:17.011Z,1.20
2022-11-13T20:30:43.352Z,1.02
2022-11-13T20:33:09.754Z,1.20
2022-11-13T20:35:36.182Z,1.10
2022-11-13T20:38:02.599Z,1.00
2022-11-13T20:40:29.132Z,1.17
2022-11-13T20:42:55.519Z,1.15
2022-11-13T20:45:21.875Z,1.02
2022-11-13T20:47:48.504Z,1.20
2022-11-13T20:50:15.187Z,0.60
2022-11-13T20:52:41.669Z,0.70
2022-11-13T20:55:08.220Z,1.40
2022-11-13T20:57:40.602Z,3.97
2022-11-13T21:00:07.743Z,2.30
2022-11-13T21:02:34.404Z,1.70
2022-11-13T21:05:00.763Z,1.88
2022-11-13T21:07:27.424Z,1.23
2022-11-13T21:09:54.292Z,1.33
2022-11-13T21:12:20.674Z,1.25
2022-11-13T21:14:47.006Z,1.48
2022-11-13T21:17:13.685Z,1.98
2022-11-13T21:19:40.061Z,1.65
2022-11-13T21:22:06.414Z,1.55
2022-11-13T21:24:33.009Z,1.25
2022-11-13T21:26:59.409Z,0.88
2022-11-13T21:29:25.809Z,1.25
2022-11-13T21:31:52.264Z,0.85
2022-11-13T21:34:18.690Z,1.33
2022-11-13T21:36:45.054Z,2.13
2022-11-13T21:39:11.512Z,1.75
2022-11-13T21:41:37.855Z,1.92
2022-11-13T21:44:05.643Z,1.35
2022-11-13T21:46:33.568Z,3.78
2022-11-13T21:49:02.401Z,2.70
2022-11-13T21:51:29.537Z,2.33
2022-11-13T21:53:56.424Z,3.05
2022-11-13T21:56:23.454Z,2.80
2022-11-13T21:58:50.051Z,2.65
2022-11-13T22:01:16.457Z,1.75
2022-11-13T22:03:42.912Z,2.03
2022-11-13T22:06:12.347Z,2.20
2022-11-13T22:08:39.027Z,1.92
2022-11-13T22:11:05.771Z,1.23
2022-11-13T22:13:33.153Z,0.93
2022-11-13T22:16:00.210Z,1.23
2022-11-13T22:18:26.772Z,1.10
2022-11-13T22:20:53.316Z,1.05
2022-11-13T22:23:19.631Z,2.25
2022-11-13T22:25:45.932Z,2.00
2022-11-13T22:28:12.241Z,3.15
2022-11-13T22:30:38.578Z,3.40
2022-11-13T22:33:04.850Z,2.13
2022-11-13T22:35:31.132Z,1.48
2022-11-13T22:37:57.673Z,3.38
2022-11-13T22:40:23.967Z,1.98
2022-11-13T22:42:50.397Z,3.22
2022-11-13T22:45:23.673Z,2.75
2022-11-13T22:47:50.394Z,4.07
2022-11-13T22:50:16.796Z,3.83
2022-11-13T22:52:43.124Z,3.03
2022-11-13T22:55:09.417Z,3.42
2022-11-13T22:57:35.735Z,3.60
2022-11-13T23:00:02.589Z,3.08
2022-11-13T23:02:28.905Z,2.42
2022-11-13T23:04:55.198Z,3.58
2022-11-13T23:07:21.636Z,3.80
2022-11-13T23:09:48.001Z,3.55
2022-11-13T23:12:14.293Z,4.25
2022-11-13T23:14:40.752Z,4.05
2022-11-13T23:17:07.050Z,3.17
2022-11-13T23:19:33.356Z,3.25
2022-11-13T23:21:59.761Z,3.10
2022-11-13T23:24:26.202Z,4.95
2022-11-13T23:26:52.513Z,3.25
2022-11-13T23:29:19.333Z,6.82
2022-11-13T23:31:45.719Z,3.92
2022-11-13T23:34:12.053Z,3.90
2022-11-13T23:36:38.515Z,3.95
2022-11-13T23:39:04.843Z,4.88
2022-11-13T23:41:31.180Z,3.30
2022-11-13T23:44:12.809Z,5.05
2022-11-13T23:46:39.156Z,3.35
2022-11-13T23:49:05.609Z,4.15
2022-11-13T23:51:31.936Z,4.75
2022-11-13T23:53:58.284Z,3.65
2022-11-13T23:56:24.856Z,4.90
2022-11-13T23:58:52.204Z,3.33
